LFBA/AGF METAR and TAF weather

Enter ICAO airport designator
Station Type Date Time Source
LFBA METAR 2021/07/28 21:00 UTC NOAA

LFBA 282100Z AUTO VRB02KT CAVOK 20/17 Q1018


Station Type Date Time Source
LFBA Decoded METAR 2021/07/28 21:00 UTC NOAA

Agen, France (LFBA) 44-11N 000-36E 60M
Jul 28, 2021 - 05:00 PM EDT / 2021.07.28 2100 UTC
Wind: Variable at 2 MPH (2 KT):0
Visibility: greater than 7 mile(s):0
Temperature: 68 F (20 C)
Dew Point: 62 F (17 C)
Relative Humidity: 82%
Pressure (altimeter): 30.06 in. Hg (1018 hPa)
ob: LFBA 282100Z AUTO VRB02KT CAVOK 20/17 Q1018
cycle: 21

Station Type Date Time Source
LFBA TAF 2014/12/22 20:03 UTC NOAA

TAF
AMD TAF
AMD LFBA 222037Z 2220/2224 12007KT 0400 FG VV///
TEMPO 2220/2224 0100 PROB30
TEMPO 2222/2224 FZFG

Example: see airport list